sensor_id;sensor_type;location;lat;lon;timestamp;pressure;altitude;pressure_sealevel;temperature;humidity
71938;BME280;59810;48.800;9.086;2023-04-20T00:01:42;97627.63;;;3.05;82.32
71938;BME280;59810;48.800;9.086;2023-04-20T00:04:10;97626.81;;;3.05;80.83
71938;BME280;59810;48.800;9.086;2023-04-20T00:06:36;97622.91;;;2.94;80.90
71938;BME280;59810;48.800;9.086;2023-04-20T00:09:01;97621.88;;;2.95;81.44
71938;BME280;59810;48.800;9.086;2023-04-20T00:11:29;97619.97;;;2.83;81.86
71938;BME280;59810;48.800;9.086;2023-04-20T00:13:54;97619.56;;;2.79;82.71
71938;BME280;59810;48.800;9.086;2023-04-20T00:16:20;97617.94;;;2.85;81.82
71938;BME280;59810;48.800;9.086;2023-04-20T00:18:45;97612.78;;;2.83;81.56
71938;BME280;59810;48.800;9.086;2023-04-20T00:21:11;97611.16;;;2.89;81.76
71938;BME280;59810;48.800;9.086;2023-04-20T00:23:36;97612.81;;;2.90;82.16
71938;BME280;59810;48.800;9.086;2023-04-20T00:26:02;97603.53;;;2.66;83.37
71938;BME280;59810;48.800;9.086;2023-04-20T00:28:27;97599.44;;;2.70;84.05
71938;BME280;59810;48.800;9.086;2023-04-20T00:30:52;97602.72;;;2.65;83.78
71938;BME280;59810;48.800;9.086;2023-04-20T00:33:20;97594.91;;;2.64;82.68
71938;BME280;59810;48.800;9.086;2023-04-20T00:35:45;97592.41;;;2.56;84.43
71938;BME280;59810;48.800;9.086;2023-04-20T00:38:11;97586.88;;;2.50;85.08
71938;BME280;59810;48.800;9.086;2023-04-20T00:40:36;97584.63;;;2.54;84.58
71938;BME280;59810;48.800;9.086;2023-04-20T00:43:12;97577.66;;;2.60;82.93
71938;BME280;59810;48.800;9.086;2023-04-20T00:45:40;97578.50;;;2.60;83.36
71938;BME280;59810;48.800;9.086;2023-04-20T00:48:06;97581.78;;;2.62;84.34
71938;BME280;59810;48.800;9.086;2023-04-20T00:50:33;97573.56;;;2.57;84.63
71938;BME280;59810;48.800;9.086;2023-04-20T00:53:01;97566.38;;;2.51;83.88
71938;BME280;59810;48.800;9.086;2023-04-20T00:55:28;97573.53;;;2.50;82.88
71938;BME280;59810;48.800;9.086;2023-04-20T00:57:54;97574.34;;;2.51;83.32
71938;BME280;59810;48.800;9.086;2023-04-20T01:00:20;97563.28;;;2.54;82.50
71938;BME280;59810;48.800;9.086;2023-04-20T01:02:46;97556.31;;;2.53;84.41
71938;BME280;59810;48.800;9.086;2023-04-20T01:05:12;97555.09;;;2.49;84.04
71938;BME280;59810;48.800;9.086;2023-04-20T01:07:37;97546.06;;;2.43;83.95
71938;BME280;59810;48.800;9.086;2023-04-20T01:10:05;97543.81;;;2.47;83.62
71938;BME280;59810;48.800;9.086;2023-04-20T01:12:30;97537.44;;;2.35;85.40
71938;BME280;59810;48.800;9.086;2023-04-20T01:14:56;97536.97;;;2.25;84.65
71938;BME280;59810;48.800;9.086;2023-04-20T01:17:21;97533.28;;;2.26;85.01
71938;BME280;59810;48.800;9.086;2023-04-20T01:19:48;97523.44;;;2.26;85.26
71938;BME280;59810;48.800;9.086;2023-04-20T01:22:18;97525.50;;;2.24;86.20
71938;BME280;59810;48.800;9.086;2023-04-20T01:24:44;97514.44;;;2.27;85.75
71938;BME280;59810;48.800;9.086;2023-04-20T01:27:10;97513.00;;;2.25;86.24
71938;BME280;59810;48.800;9.086;2023-04-20T01:29:36;97509.91;;;2.14;86.59
71938;BME280;59810;48.800;9.086;2023-04-20T01:32:04;97509.91;;;2.14;86.49
71938;BME280;59810;48.800;9.086;2023-04-20T01:34:30;97494.72;;;2.08;86.58
71938;BME280;59810;48.800;9.086;2023-04-20T01:36:57;97499.66;;;2.11;85.42
71938;BME280;59810;48.800;9.086;2023-04-20T01:39:23;97491.63;;;2.05;86.07
71938;BME280;59810;48.800;9.086;2023-04-20T01:41:48;97493.88;;;2.01;85.87
71938;BME280;59810;48.800;9.086;2023-04-20T01:44:14;97489.41;;;2.08;84.72
71938;BME280;59810;48.800;9.086;2023-04-20T01:46:39;97482.63;;;1.99;86.09
71938;BME280;59810;48.800;9.086;2023-04-20T01:49:05;97484.41;;;1.92;87.56
71938;BME280;59810;48.800;9.086;2023-04-20T01:51:34;97480.09;;;1.91;86.70
71938;BME280;59810;48.800;9.086;2023-04-20T01:54:00;97482.13;;;1.82;86.81
71938;BME280;59810;48.800;9.086;2023-04-20T01:56:28;97479.47;;;1.82;87.12
71938;BME280;59810;48.800;9.086;2023-04-20T01:58:53;97476.19;;;1.87;87.10
71938;BME280;59810;48.800;9.086;2023-04-20T02:01:19;97465.56;;;1.87;86.69
71938;BME280;59810;48.800;9.086;2023-04-20T02:03:44;97468.78;;;1.76;86.99
71938;BME280;59810;48.800;9.086;2023-04-20T02:06:10;97464.28;;;1.76;87.12
71938;BME280;59810;48.800;9.086;2023-04-20T02:08:36;97468.59;;;1.77;88.80
71938;BME280;59810;48.800;9.086;2023-04-20T02:11:01;97463.09;;;1.85;86.95
71938;BME280;59810;48.800;9.086;2023-04-20T02:13:28;97470.84;;;1.80;86.58
71938;BME280;59810;48.800;9.086;2023-04-20T02:15:54;97464.31;;;1.83;86.00
71938;BME280;59810;48.800;9.086;2023-04-20T02:18:19;97459.38;;;1.73;88.09
71938;BME280;59810;48.800;9.086;2023-04-20T02:20:47;97461.44;;;1.78;88.31
71938;BME280;59810;48.800;9.086;2023-04-20T02:23:13;97458.97;;;1.76;87.07
71938;BME280;59810;48.800;9.086;2023-04-20T02:25:38;97454.47;;;1.77;89.44
71938;BME280;59810;48.800;9.086;2023-04-20T02:28:04;97452.59;;;1.71;88.11
71938;BME280;59810;48.800;9.086;2023-04-20T02:30:29;97456.06;;;1.65;87.22
71938;BME280;59810;48.800;9.086;2023-04-20T02:32:58;97449.47;;;1.61;87.74
71938;BME280;59810;48.800;9.086;2023-04-20T02:35:23;97440.09;;;1.65;86.50
71938;BME280;59810;48.800;9.086;2023-04-20T02:37:51;97439.91;;;1.66;86.18
71938;BME280;59810;48.800;9.086;2023-04-20T02:40:18;97438.19;;;1.59;87.61
71938;BME280;59810;48.800;9.086;2023-04-20T02:42:44;97435.53;;;1.59;89.39
71938;BME280;59810;48.800;9.086;2023-04-20T02:45:12;97423.50;;;1.63;88.39
71938;BME280;59810;48.800;9.086;2023-04-20T02:47:38;97418.19;;;1.63;87.14
71938;BME280;59810;48.800;9.086;2023-04-20T02:50:03;97433.03;;;1.50;88.17
71938;BME280;59810;48.800;9.086;2023-04-20T02:52:31;97425.47;;;1.47;88.71
71938;BME280;59810;48.800;9.086;2023-04-20T02:54:57;97425.22;;;1.36;88.09
71938;BME280;59810;48.800;9.086;2023-04-20T02:57:24;97419.47;;;1.32;88.60
71938;BME280;59810;48.800;9.086;2023-04-20T02:59:50;97414.69;;;1.21;88.02
71938;BME280;59810;48.800;9.086;2023-04-20T03:02:15;97411.38;;;1.12;88.25
71938;BME280;59810;48.800;9.086;2023-04-20T03:04:43;97420.00;;;1.21;87.86
71938;BME280;59810;48.800;9.086;2023-04-20T03:07:08;97410.88;;;1.30;89.29
71938;BME280;59810;48.800;9.086;2023-04-20T03:09:35;97414.16;;;1.32;88.61
71938;BME280;59810;48.800;9.086;2023-04-20T03:12:01;97414.56;;;1.36;88.26
71938;BME280;59810;48.800;9.086;2023-04-20T03:14:29;97415.59;;;1.35;88.85
71938;BME280;59810;48.800;9.086;2023-04-20T03:16:55;97408.84;;;1.32;87.95
71938;BME280;59810;48.800;9.086;2023-04-20T03:19:21;97412.88;;;1.28;88.75
71938;BME280;59810;48.800;9.086;2023-04-20T03:21:46;97410.88;;;1.30;89.43
71938;BME280;59810;48.800;9.086;2023-04-20T03:24:11;97406.53;;;1.29;89.45
71938;BME280;59810;48.800;9.086;2023-04-20T03:26:37;97401.22;;;1.29;89.14
71938;BME280;59810;48.800;9.086;2023-04-20T03:29:02;97405.28;;;1.25;90.42
71938;BME280;59810;48.800;9.086;2023-04-20T03:31:27;97408.75;;;1.19;90.21
71938;BME280;59810;48.800;9.086;2023-04-20T03:33:53;97404.59;;;1.10;89.16
71938;BME280;59810;48.800;9.086;2023-04-20T03:36:18;97409.16;;;1.22;88.92
71938;BME280;59810;48.800;9.086;2023-04-20T03:38:43;97404.84;;;1.15;90.18
71938;BME280;59810;48.800;9.086;2023-04-20T03:41:09;97407.88;;;1.12;89.63
71938;BME280;59810;48.800;9.086;2023-04-20T03:43:34;97397.66;;;1.09;90.78
71938;BME280;59810;48.800;9.086;2023-04-20T03:46:02;97403.19;;;1.14;88.62
71938;BME280;59810;48.800;9.086;2023-04-20T03:48:27;97399.69;;;1.07;88.74
71938;BME280;59810;48.800;9.086;2023-04-20T03:50:58;97395.59;;;1.04;90.41
71938;BME280;59810;48.800;9.086;2023-04-20T03:53:25;97396.41;;;1.05;89.12
71938;BME280;59810;48.800;9.086;2023-04-20T03:55:53;97397.25;;;1.12;90.64
71938;BME280;59810;48.800;9.086;2023-04-20T03:58:19;97395.97;;;1.01;89.64
71938;BME280;59810;48.800;9.086;2023-04-20T04:00:49;97393.97;;;1.10;89.40
71938;BME280;59810;48.800;9.086;2023-04-20T04:03:14;97393.94;;;1.03;89.76
71938;BME280;59810;48.800;9.086;2023-04-20T04:05:40;97386.59;;;1.05;90.49
71938;BME280;59810;48.800;9.086;2023-04-20T04:08:06;97391.53;;;1.15;89.78
71938;BME280;59810;48.800;9.086;2023-04-20T04:10:31;97391.13;;;1.11;89.69
71938;BME280;59810;48.800;9.086;2023-04-20T04:12:57;97390.84;;;1.00;89.98
71938;BME280;59810;48.800;9.086;2023-04-20T04:15:22;97389.88;;;1.07;89.67
71938;BME280;59810;48.800;9.086;2023-04-20T04:17:47;97389.06;;;1.07;88.63
71938;BME280;59810;48.800;9.086;2023-04-20T04:20:13;97390.69;;;1.08;89.14
71938;BME280;59810;48.800;9.086;2023-04-20T04:22:39;97387.00;;;1.09;88.43
71938;BME280;59810;48.800;9.086;2023-04-20T04:25:05;97397.69;;;1.15;88.28
71938;BME280;59810;48.800;9.086;2023-04-20T04:27:32;97390.31;;;1.17;88.08
71938;BME280;59810;48.800;9.086;2023-04-20T04:30:01;97387.25;;;1.14;88.88
71938;BME280;59810;48.800;9.086;2023-04-20T04:32:27;97382.72;;;1.08;89.33
71938;BME280;59810;48.800;9.086;2023-04-20T04:34:52;97387.81;;;1.03;88.04
71938;BME280;59810;48.800;9.086;2023-04-20T04:37:18;97383.69;;;1.00;90.08
71938;BME280;59810;48.800;9.086;2023-04-20T04:39:44;97394.75;;;1.04;89.18
71938;BME280;59810;48.800;9.086;2023-04-20T04:42:09;97394.38;;;1.07;88.62
71938;BME280;59810;48.800;9.086;2023-04-20T04:44:35;97394.59;;;1.12;88.33
71938;BME280;59810;48.800;9.086;2023-04-20T04:47:04;97392.16;;;1.17;88.00
71938;BME280;59810;48.800;9.086;2023-04-20T04:49:30;97389.09;;;1.13;89.46
71938;BME280;59810;48.800;9.086;2023-04-20T04:51:58;97390.75;;;1.21;88.52
71938;BME280;59810;48.800;9.086;2023-04-20T04:54:24;97388.31;;;1.26;88.13
71938;BME280;59810;48.800;9.086;2023-04-20T04:56:49;97387.66;;;1.17;89.07
71938;BME280;59810;48.800;9.086;2023-04-20T04:59:17;97384.03;;;1.25;90.58
71938;BME280;59810;48.800;9.086;2023-04-20T05:01:42;97387.66;;;1.17;90.28
71938;BME280;59810;48.800;9.086;2023-04-20T05:04:07;97382.34;;;1.17;89.33
71938;BME280;59810;48.800;9.086;2023-04-20T05:06:33;97388.31;;;1.26;89.01
71938;BME280;59810;48.800;9.086;2023-04-20T05:08:58;97389.00;;;1.35;88.54
71938;BME280;59810;48.800;9.086;2023-04-20T05:11:23;97389.66;;;1.43;88.12
71938;BME280;59810;48.800;9.086;2023-04-20T05:13:49;97399.09;;;1.52;87.70
71938;BME280;59810;48.800;9.086;2023-04-20T05:16:14;97392.94;;;1.52;89.54
71938;BME280;59810;48.800;9.086;2023-04-20T05:18:40;97399.09;;;1.52;88.71
71938;BME280;59810;48.800;9.086;2023-04-20T05:21:08;97393.38;;;1.62;88.02
71938;BME280;59810;48.800;9.086;2023-04-20T05:23:36;97402.03;;;1.71;87.79
71938;BME280;59810;48.800;9.086;2023-04-20T05:26:01;97393.63;;;1.67;88.49
71938;BME280;59810;48.800;9.086;2023-04-20T05:28:26;97396.53;;;1.79;88.06
71938;BME280;59810;48.800;9.086;2023-04-20T05:30:51;97400.03;;;1.86;86.87
71938;BME280;59810;48.800;9.086;2023-04-20T05:33:19;97403.69;;;1.78;88.70
71938;BME280;59810;48.800;9.086;2023-04-20T05:35:45;97394.50;;;1.81;89.24
71938;BME280;59810;48.800;9.086;2023-04-20T05:38:10;97398.81;;;1.88;88.08
71938;BME280;59810;48.800;9.086;2023-04-20T05:40:36;97401.31;;;1.97;87.38
71938;BME280;59810;48.800;9.086;2023-04-20T05:43:01;97402.56;;;2.07;86.76
71938;BME280;59810;48.800;9.086;2023-04-20T05:45:29;97401.34;;;2.16;85.15
71938;BME280;59810;48.800;9.086;2023-04-20T05:47:55;97398.47;;;2.25;84.57
71938;BME280;59810;48.800;9.086;2023-04-20T05:50:25;97399.13;;;2.33;84.78
71938;BME280;59810;48.800;9.086;2023-04-20T05:52:51;97400.75;;;2.41;83.85
71938;BME280;59810;48.800;9.086;2023-04-20T05:55:18;97394.00;;;2.45;84.90
71938;BME280;59810;48.800;9.086;2023-04-20T05:57:43;97395.63;;;2.46;82.13
71938;BME280;59810;48.800;9.086;2023-04-20T06:00:13;97394.41;;;2.48;81.22
71938;BME280;59810;48.800;9.086;2023-04-20T06:02:42;97387.63;;;2.46;81.83
71938;BME280;59810;48.800;9.086;2023-04-20T06:05:09;97389.69;;;2.50;81.30
71938;BME280;59810;48.800;9.086;2023-04-20T06:07:35;97390.09;;;2.54;81.09
71938;BME280;59810;48.800;9.086;2023-04-20T06:10:03;97394.22;;;2.63;82.04
71938;BME280;59810;48.800;9.086;2023-04-20T06:12:32;97392.34;;;2.57;81.14
71938;BME280;59810;48.800;9.086;2023-04-20T06:14:58;97388.06;;;2.63;81.42
71938;BME280;59810;48.800;9.086;2023-04-20T06:17:23;97392.56;;;2.69;82.24
71938;BME280;59810;48.800;9.086;2023-04-20T06:19:49;97380.88;;;2.76;81.46
71938;BME280;59810;48.800;9.086;2023-04-20T06:22:14;97389.47;;;2.85;81.69
71938;BME280;59810;48.800;9.086;2023-04-20T06:24:40;97378.38;;;2.88;81.61
71938;BME280;59810;48.800;9.086;2023-04-20T06:27:09;97378.41;;;2.95;79.71
71938;BME280;59810;48.800;9.086;2023-04-20T06:29:34;97372.63;;;2.91;79.80
71938;BME280;59810;48.800;9.086;2023-04-20T06:32:00;97373.88;;;2.89;80.89
71938;BME280;59810;48.800;9.086;2023-04-20T06:34:25;97377.97;;;2.98;80.93
71938;BME280;59810;48.800;9.086;2023-04-20T06:36:50;97373.84;;;3.08;82.27
71938;BME280;59810;48.800;9.086;2023-04-20T06:39:16;97370.34;;;3.15;80.51
71938;BME280;59810;48.800;9.086;2023-04-20T06:41:43;97371.56;;;3.19;80.31
71938;BME280;59810;48.800;9.086;2023-04-20T06:44:11;97373.19;;;3.26;80.85
71938;BME280;59810;48.800;9.086;2023-04-20T06:46:37;97376.44;;;3.35;81.36
71938;BME280;59810;48.800;9.086;2023-04-20T06:49:04;97368.00;;;3.44;81.66
71938;BME280;59810;48.800;9.086;2023-04-20T06:51:32;97372.28;;;3.59;80.92
71938;BME280;59810;48.800;9.086;2023-04-20T06:53:57;97365.03;;;3.66;80.50
71938;BME280;59810;48.800;9.086;2023-04-20T06:56:23;97363.38;;;3.71;79.74
71938;BME280;59810;48.800;9.086;2023-04-20T06:58:48;97356.13;;;3.79;80.10
71938;BME280;59810;48.800;9.086;2023-04-20T07:01:13;97364.94;;;3.86;80.19
71938;BME280;59810;48.800;9.086;2023-04-20T07:03:39;97363.84;;;4.00;79.43
71938;BME280;59810;48.800;9.086;2023-04-20T07:06:06;97371.31;;;4.23;79.74
71938;BME280;59810;48.800;9.086;2023-04-20T07:08:35;97373.28;;;4.34;78.54
71938;BME280;59810;48.800;9.086;2023-04-20T07:11:00;97355.50;;;4.46;78.27
71938;BME280;59810;48.800;9.086;2023-04-20T07:13:31;97356.44;;;4.58;76.34
71938;BME280;59810;48.800;9.086;2023-04-20T07:15:56;97355.66;;;4.76;76.74
71938;BME280;59810;48.800;9.086;2023-04-20T07:18:24;97358.44;;;4.88;74.46
71938;BME280;59810;48.800;9.086;2023-04-20T07:20:51;97355.84;;;4.99;75.78
71938;BME280;59810;48.800;9.086;2023-04-20T07:23:16;97355.34;;;5.09;76.23
71938;BME280;59810;48.800;9.086;2023-04-20T07:25:41;97351.63;;;5.10;75.66
71938;BME280;59810;48.800;9.086;2023-04-20T07:28:09;97356.66;;;5.18;75.28
71938;BME280;59810;48.800;9.086;2023-04-20T07:30:37;97356.44;;;5.20;74.78
71938;BME280;59810;48.800;9.086;2023-04-20T07:33:05;97351.50;;;5.23;74.89
71938;BME280;59810;48.800;9.086;2023-04-20T07:35:31;97348.00;;;5.23;75.01
71938;BME280;59810;48.800;9.086;2023-04-20T07:37:56;97355.69;;;5.13;74.83
71938;BME280;59810;48.800;9.086;2023-04-20T07:40:22;97352.34;;;5.17;75.64
71938;BME280;59810;48.800;9.086;2023-04-20T07:42:47;97351.50;;;5.23;75.63
71938;BME280;59810;48.800;9.086;2023-04-20T07:45:15;97346.78;;;5.37;74.60
71938;BME280;59810;48.800;9.086;2023-04-20T07:47:43;97340.03;;;5.53;75.24
71938;BME280;59810;48.800;9.086;2023-04-20T07:50:11;97346.84;;;5.67;74.11
71938;BME280;59810;48.800;9.086;2023-04-20T07:52:37;97341.31;;;5.80;72.87
71938;BME280;59810;48.800;9.086;2023-04-20T07:55:03;97349.22;;;5.75;70.84
71938;BME280;59810;48.800;9.086;2023-04-20T07:57:33;97353.66;;;6.00;71.84
71938;BME280;59810;48.800;9.086;2023-04-20T07:59:58;97354.72;;;5.99;70.04
71938;BME280;59810;48.800;9.086;2023-04-20T08:02:23;97354.59;;;6.05;70.53
71938;BME280;59810;48.800;9.086;2023-04-20T08:04:49;97347.16;;;6.07;70.96
71938;BME280;59810;48.800;9.086;2023-04-20T08:07:14;97351.81;;;6.12;72.22
71938;BME280;59810;48.800;9.086;2023-04-20T08:09:40;97357.59;;;6.27;72.33
71938;BME280;59810;48.800;9.086;2023-04-20T08:12:06;97356.44;;;6.23;71.54
71938;BME280;59810;48.800;9.086;2023-04-20T08:14:33;97352.13;;;6.34;70.38
71938;BME280;59810;48.800;9.086;2023-04-20T08:16:59;97351.69;;;6.48;71.61
71938;BME280;59810;48.800;9.086;2023-04-20T08:19:24;97348.00;;;6.61;69.79
71938;BME280;59810;48.800;9.086;2023-04-20T08:21:50;97350.09;;;6.71;69.61
71938;BME280;59810;48.800;9.086;2023-04-20T08:24:16;97341.09;;;6.77;69.29
71938;BME280;59810;48.800;9.086;2023-04-20T08:26:42;97342.88;;;6.83;70.63
71938;BME280;59810;48.800;9.086;2023-04-20T08:29:07;97334.72;;;6.90;70.96
71938;BME280;59810;48.800;9.086;2023-04-20T08:31:32;97335.16;;;6.98;70.39
71938;BME280;59810;48.800;9.086;2023-04-20T08:33:58;97339.47;;;7.11;69.62
71938;BME280;59810;48.800;9.086;2023-04-20T08:36:23;97338.44;;;6.89;69.28
71938;BME280;59810;48.800;9.086;2023-04-20T08:38:55;97347.91;;;6.91;70.53
71938;BME280;59810;48.800;9.086;2023-04-20T08:41:21;97342.50;;;6.79;70.51
71938;BME280;59810;48.800;9.086;2023-04-20T08:43:46;97338.19;;;6.78;70.56
71938;BME280;59810;48.800;9.086;2023-04-20T08:46:14;97347.06;;;6.79;72.02
71938;BME280;59810;48.800;9.086;2023-04-20T08:48:40;97348.69;;;6.80;71.91
71938;BME280;59810;48.800;9.086;2023-04-20T08:51:10;97348.34;;;6.65;71.86
71938;BME280;59810;48.800;9.086;2023-04-20T08:53:36;97348.34;;;6.53;73.51
71938;BME280;59810;48.800;9.086;2023-04-20T08:56:01;97351.38;;;6.57;74.89
71938;BME280;59810;48.800;9.086;2023-04-20T08:58:31;97349.94;;;6.42;75.36
71938;BME280;59810;48.800;9.086;2023-04-20T09:00:57;97345.75;;;6.46;74.87
71938;BME280;59810;48.800;9.086;2023-04-20T09:03:39;97351.44;;;6.50;80.00
71938;BME280;59810;48.800;9.086;2023-04-20T09:06:14;97350.91;;;6.60;79.31
71938;BME280;59810;48.800;9.086;2023-04-20T09:08:41;97356.38;;;6.65;77.12
71938;BME280;59810;48.800;9.086;2023-04-20T09:11:22;97341.34;;;6.64;77.42
71938;BME280;59810;48.800;9.086;2023-04-20T09:16:57;97336.09;;;6.57;76.19
71938;BME280;59810;48.800;9.086;2023-04-20T09:19:30;97338.88;;;6.50;77.82
71938;BME280;59810;48.800;9.086;2023-04-20T09:21:58;97342.28;;;6.58;76.74
71938;BME280;59810;48.800;9.086;2023-04-20T09:24:30;97341.81;;;6.61;78.51
71938;BME280;59810;48.800;9.086;2023-04-20T09:27:02;97337.16;;;6.68;76.07
71938;BME280;59810;48.800;9.086;2023-04-20T09:29:38;97325.84;;;6.66;76.35
71938;BME280;59810;48.800;9.086;2023-04-20T09:32:03;97327.69;;;6.65;77.04
71938;BME280;59810;48.800;9.086;2023-04-20T09:34:40;97327.47;;;6.67;77.13
71938;BME280;59810;48.800;9.086;2023-04-20T09:37:08;97329.69;;;6.70;77.33
71938;BME280;59810;48.800;9.086;2023-04-20T09:39:33;97328.28;;;6.67;77.61
71938;BME280;59810;48.800;9.086;2023-04-20T09:42:03;97332.09;;;6.48;77.63
71938;BME280;59810;48.800;9.086;2023-04-20T09:44:29;97333.72;;;6.49;78.81
71938;BME280;59810;48.800;9.086;2023-04-20T09:46:58;97333.38;;;6.45;77.42
71938;BME280;59810;48.800;9.086;2023-04-20T09:49:24;97333.84;;;6.42;77.30
71938;BME280;59810;48.800;9.086;2023-04-20T09:51:49;97331.16;;;6.42;76.68
71938;BME280;59810;48.800;9.086;2023-04-20T09:54:15;97333.50;;;6.39;77.44
71938;BME280;59810;48.800;9.086;2023-04-20T09:56:42;97328.81;;;6.46;76.41
71938;BME280;59810;48.800;9.086;2023-04-20T09:59:10;97323.34;;;6.41;76.04
71938;BME280;59810;48.800;9.086;2023-04-20T10:01:36;97326.03;;;6.41;76.19
71938;BME280;59810;48.800;9.086;2023-04-20T10:04:06;97323.94;;;6.43;77.54
71938;BME280;59810;48.800;9.086;2023-04-20T10:06:37;97328.16;;;6.50;78.73
71938;BME280;59810;48.800;9.086;2023-04-20T10:09:04;97322.56;;;6.52;77.08
71938;BME280;59810;48.800;9.086;2023-04-20T10:11:37;97322.19;;;6.48;76.99
71938;BME280;59810;48.800;9.086;2023-04-20T10:14:24;97323.16;;;6.54;77.23
71938;BME280;59810;48.800;9.086;2023-04-20T10:19:38;97320.94;;;6.51;78.35
71938;BME280;59810;48.800;9.086;2023-04-20T10:22:05;97316.38;;;6.51;78.88
71938;BME280;59810;48.800;9.086;2023-04-20T10:24:30;97311.84;;;6.52;80.58
71938;BME280;59810;48.800;9.086;2023-04-20T10:26:56;97314.53;;;6.52;79.07
71938;BME280;59810;48.800;9.086;2023-04-20T10:29:24;97312.06;;;6.50;80.41
71938;BME280;59810;48.800;9.086;2023-04-20T10:31:49;97309.03;;;6.59;80.30
71938;BME280;59810;48.800;9.086;2023-04-20T10:34:15;97300.63;;;6.67;84.58
71938;BME280;59810;48.800;9.086;2023-04-20T10:36:40;97298.44;;;6.64;80.00
71938;BME280;59810;48.800;9.086;2023-04-20T10:39:19;97304.25;;;6.72;81.43
71938;BME280;59810;48.800;9.086;2023-04-20T10:42:03;97290.59;;;6.74;80.48
71938;BME280;59810;48.800;9.086;2023-04-20T10:44:31;97291.53;;;6.79;80.01
71938;BME280;59810;48.800;9.086;2023-04-20T10:46:59;97283.47;;;6.79;81.15
71938;BME280;59810;48.800;9.086;2023-04-20T10:49:26;97273.13;;;6.83;80.46
71938;BME280;59810;48.800;9.086;2023-04-20T10:51:53;97254.56;;;6.93;79.98
71938;BME280;59810;48.800;9.086;2023-04-20T10:54:21;97251.69;;;7.11;79.66
71938;BME280;59810;48.800;9.086;2023-04-20T10:56:51;97253.41;;;7.29;78.66
71938;BME280;59810;48.800;9.086;2023-04-20T10:59:18;97258.41;;;7.37;78.65
71938;BME280;59810;48.800;9.086;2023-04-20T11:01:46;97260.84;;;7.39;79.89
71938;BME280;59810;48.800;9.086;2023-04-20T11:04:13;97260.00;;;7.22;79.33
71938;BME280;59810;48.800;9.086;2023-04-20T11:06:40;97261.38;;;7.24;80.82
71938;BME280;59810;48.800;9.086;2023-04-20T11:09:19;97258.94;;;7.23;79.76
71938;BME280;59810;48.800;9.086;2023-04-20T11:12:02;97258.94;;;7.11;80.35
71938;BME280;59810;48.800;9.086;2023-04-20T11:14:49;97256.03;;;7.12;80.32
71938;BME280;59810;48.800;9.086;2023-04-20T11:17:15;97258.41;;;6.97;81.14
71938;BME280;59810;48.800;9.086;2023-04-20T11:19:40;97251.97;;;6.98;81.73
71938;BME280;59810;48.800;9.086;2023-04-20T11:22:05;97245.44;;;6.94;81.01
71938;BME280;59810;48.800;9.086;2023-04-20T11:24:32;97240.09;;;6.94;82.76
71938;BME280;59810;48.800;9.086;2023-04-20T11:27:01;97247.91;;;6.96;83.54
71938;BME280;59810;48.800;9.086;2023-04-20T11:29:38;97248.13;;;6.94;84.16
71938;BME280;59810;48.800;9.086;2023-04-20T11:34:29;97260.19;;;6.57;82.19
71938;BME280;59810;48.800;9.086;2023-04-20T11:36:55;97263.31;;;6.42;83.88
71938;BME280;59810;48.800;9.086;2023-04-20T11:39:25;97269.97;;;6.39;85.56
71938;BME280;59810;48.800;9.086;2023-04-20T11:41:51;97267.28;;;6.28;88.16
71938;BME280;59810;48.800;9.086;2023-04-20T11:44:18;97262.72;;;6.28;88.73
71938;BME280;59810;48.800;9.086;2023-04-20T11:46:45;97268.56;;;6.25;88.90
71938;BME280;59810;48.800;9.086;2023-04-20T11:49:11;97256.19;;;6.24;86.87
71938;BME280;59810;48.800;9.086;2023-04-20T11:51:37;97263.88;;;6.32;86.17
71938;BME280;59810;48.800;9.086;2023-04-20T11:54:02;97262.25;;;6.31;87.54
71938;BME280;59810;48.800;9.086;2023-04-20T11:56:27;97262.72;;;6.28;89.28
71938;BME280;59810;48.800;9.086;2023-04-20T11:58:53;97262.03;;;6.21;89.29
71938;BME280;59810;48.800;9.086;2023-04-20T12:01:21;97250.56;;;6.14;88.03
71938;BME280;59810;48.800;9.086;2023-04-20T12:03:46;97244.66;;;6.23;90.40
71938;BME280;59810;48.800;9.086;2023-04-20T12:06:11;97237.41;;;6.12;91.09
71938;BME280;59810;48.800;9.086;2023-04-20T12:08:37;97231.50;;;6.22;94.68
71938;BME280;59810;48.800;9.086;2023-04-20T12:11:02;97234.28;;;6.27;95.86
71938;BME280;59810;48.800;9.086;2023-04-20T12:13:27;97243.84;;;6.35;95.39
71938;BME280;59810;48.800;9.086;2023-04-20T12:15:53;97247.22;;;6.42;92.98
71938;BME280;59810;48.800;9.086;2023-04-20T12:18:18;97253.16;;;6.44;91.26
71938;BME280;59810;48.800;9.086;2023-04-20T12:20:47;97252.81;;;6.40;90.46
71938;BME280;59810;48.800;9.086;2023-04-20T12:23:14;97256.31;;;6.41;90.57
71938;BME280;59810;48.800;9.086;2023-04-20T12:25:39;97242.22;;;6.34;91.58
71938;BME280;59810;48.800;9.086;2023-04-20T12:28:05;97245.72;;;6.34;90.80
71938;BME280;59810;48.800;9.086;2023-04-20T12:30:32;97231.25;;;6.35;90.04
71938;BME280;59810;48.800;9.086;2023-04-20T12:33:02;97236.63;;;6.35;90.10
71938;BME280;59810;48.800;9.086;2023-04-20T12:35:31;97234.16;;;6.34;89.79
71938;BME280;59810;48.800;9.086;2023-04-20T12:37:56;97228.69;;;6.40;90.09
71938;BME280;59810;48.800;9.086;2023-04-20T12:40:22;97224.50;;;6.44;90.73
71938;BME280;59810;48.800;9.086;2023-04-20T12:42:48;97216.56;;;6.49;91.73
71938;BME280;59810;48.800;9.086;2023-04-20T12:45:13;97218.56;;;6.54;91.84
71938;BME280;59810;48.800;9.086;2023-04-20T12:47:41;97217.16;;;6.51;91.48
71938;BME280;59810;48.800;9.086;2023-04-20T12:50:06;97216.56;;;6.49;93.85
71938;BME280;59810;48.800;9.086;2023-04-20T12:52:32;97212.38;;;6.53;94.98
71938;BME280;59810;48.800;9.086;2023-04-20T12:54:58;97211.31;;;6.54;92.50
71938;BME280;59810;48.800;9.086;2023-04-20T12:57:23;97206.88;;;6.60;89.01
71938;BME280;59810;48.800;9.086;2023-04-20T12:59:49;97207.84;;;6.54;87.70
71938;BME280;59810;48.800;9.086;2023-04-20T13:02:16;97204.56;;;6.52;87.29
71938;BME280;59810;48.800;9.086;2023-04-20T13:04:41;97213.44;;;6.52;87.83
71938;BME280;59810;48.800;9.086;2023-04-20T13:07:07;97213.44;;;6.52;86.72
71938;BME280;59810;48.800;9.086;2023-04-20T13:09:32;97224.41;;;6.51;87.89
71938;BME280;59810;48.800;9.086;2023-04-20T13:11:57;97231.72;;;6.55;88.35
71938;BME280;59810;48.800;9.086;2023-04-20T13:14:24;97245.59;;;6.41;89.02
71938;BME280;59810;48.800;9.086;2023-04-20T13:16:49;97250.94;;;6.41;89.01